Time;durP1;ratioP1;P1;durP2;ratioP2;P2;SDS_P1;SDS_P2;PMS_P1;PMS_P2;Temp;Humidity;BMP_temperature;BMP_pressure;BME280_temperature;BME280_humidity;BME280_pressure;Samples;Min_cycle;Max_cycle;Signal;HPM_P1;HPM_P2
2021/03/13 00:01:19;;;;;;;10.13;2.17;;;6.40;79.70;;;;;;5050686;28;20872;-79
2021/03/13 00:03:45;;;;;;;9.27;1.63;;;6.40;79.60;;;;;;5050082;28;20524;-80
2021/03/13 00:06:11;;;;;;;8.63;1.92;;;6.30;80.20;;;;;;5050205;28;20885;-79
2021/03/13 00:08:37;;;;;;;12.80;1.87;;;6.40;80.50;;;;;;5049618;28;20386;-78
2021/03/13 00:11:05;;;;;;;8.60;1.70;;;6.40;80.50;;;;;;5048592;28;20382;-77
2021/03/13 00:13:31;;;;;;;7.75;1.50;;;6.40;80.00;;;;;;5048884;28;20940;-79
2021/03/13 00:15:56;;;;;;;8.13;1.85;;;6.40;79.30;;;;;;5049363;28;20389;-78
2021/03/13 00:18:22;;;;;;;5.47;1.60;;;6.40;80.10;;;;;;5048159;28;20472;-79
2021/03/13 00:20:48;;;;;;;8.65;1.40;;;6.30;80.30;;;;;;5049642;28;20404;-79
2021/03/13 00:23:14;;;;;;;11.02;1.73;;;6.40;79.50;;;;;;5049892;28;20389;-79
2021/03/13 00:25:40;;;;;;;7.45;1.77;;;6.40;79.80;;;;;;5053618;28;20396;-79
2021/03/13 00:28:07;;;;;;;12.57;3.10;;;6.40;79.80;;;;;;5053212;28;20727;-78
2021/03/13 00:30:35;;;;;;;6.13;1.75;;;6.40;80.20;;;;;;5053790;28;20396;-78
2021/03/13 00:33:07;;;;;;;9.05;1.73;;;6.30;80.50;;;;;;5053069;28;20912;-79
2021/03/13 00:35:33;;;;;;;11.43;1.80;;;6.30;80.40;;;;;;5053860;28;20392;-79
2021/03/13 00:38:00;;;;;;;17.70;2.33;;;6.40;80.30;;;;;;5052820;28;20758;-78
2021/03/13 00:40:27;;;;;;;11.20;1.80;;;6.30;80.30;;;;;;5052215;28;20390;-78
2021/03/13 00:42:54;;;;;;;11.35;1.98;;;6.30;80.50;;;;;;5051744;28;20801;-79
2021/03/13 00:45:22;;;;;;;12.15;1.92;;;6.30;80.60;;;;;;5053421;28;20388;-79
2021/03/13 00:47:48;;;;;;;11.68;1.95;;;6.30;81.00;;;;;;5052153;28;20785;-79
2021/03/13 00:50:16;;;;;;;9.85;1.85;;;6.30;80.50;;;;;;5053373;28;20396;-79
2021/03/13 00:52:42;;;;;;;13.07;1.90;;;6.40;80.30;;;;;;5051503;28;20389;-79
2021/03/13 00:55:09;;;;;;;9.20;1.92;;;6.30;80.90;;;;;;5053256;28;20382;-78
2021/03/13 00:57:35;;;;;;;13.35;1.85;;;6.40;80.80;;;;;;5052633;28;20415;-79
2021/03/13 01:00:01;;;;;;;14.40;2.00;;;6.40;80.10;;;;;;5052648;28;20378;-79
2021/03/13 01:02:27;;;;;;;12.10;1.80;;;6.40;80.40;;;;;;5053398;28;20406;-78
2021/03/13 01:04:52;;;;;;;8.50;1.77;;;6.40;80.70;;;;;;5051368;28;20909;-79
2021/03/13 01:07:18;;;;;;;9.47;1.70;;;6.40;80.40;;;;;;5052577;28;20439;-78
2021/03/13 01:09:43;;;;;;;7.88;1.83;;;6.40;81.00;;;;;;5052238;28;21008;-79
2021/03/13 01:12:09;;;;;;;12.03;1.80;;;6.40;81.00;;;;;;5052779;28;20785;-79
2021/03/13 01:14:35;;;;;;;8.23;1.80;;;6.30;81.70;;;;;;5051495;28;20948;-79
2021/03/13 01:17:00;;;;;;;7.57;1.80;;;6.30;81.80;;;;;;5052359;28;20895;-79
2021/03/13 01:19:26;;;;;;;9.80;1.95;;;6.30;82.50;;;;;;5052491;28;20850;-79
2021/03/13 01:21:52;;;;;;;9.15;2.05;;;6.20;82.80;;;;;;5052461;28;20389;-79
2021/03/13 01:24:17;;;;;;;12.50;2.53;;;6.20;82.90;;;;;;5052350;28;20370;-78
2021/03/13 01:26:43;;;;;;;10.27;2.37;;;6.20;83.00;;;;;;5052423;28;20385;-79
2021/03/13 01:29:09;;;;;;;9.85;2.35;;;6.20;83.50;;;;;;5051993;28;20759;-79
2021/03/13 01:31:34;;;;;;;9.52;2.08;;;6.10;83.80;;;;;;5052221;28;20377;-79
2021/03/13 01:34:00;;;;;;;7.13;2.00;;;6.20;83.50;;;;;;5052102;28;20751;-79
2021/03/13 01:36:25;;;;;;;9.03;2.00;;;6.20;83.30;;;;;;5051436;28;20470;-80
2021/03/13 01:38:51;;;;;;;11.50;2.50;;;6.10;84.00;;;;;;5052205;28;20375;-79
2021/03/13 01:41:17;;;;;;;7.20;1.98;;;6.10;84.00;;;;;;5052030;28;20389;-79
2021/03/13 01:43:43;;;;;;;5.63;2.10;;;6.10;84.40;;;;;;5052270;28;20865;-79
2021/03/13 01:46:08;;;;;;;11.70;2.17;;;6.10;84.40;;;;;;5051661;28;20428;-79
2021/03/13 01:48:41;;;;;;;9.97;2.47;;;6.10;84.70;;;;;;5050427;28;20393;-79
2021/03/13 01:51:07;;;;;;;8.50;2.40;;;6.10;84.90;;;;;;5052171;28;20397;-79
2021/03/13 01:53:33;;;;;;;6.97;2.38;;;6.00;85.50;;;;;;5051778;28;20447;-79
2021/03/13 01:55:58;;;;;;;8.57;2.53;;;6.10;85.80;;;;;;5051808;28;20382;-78
2021/03/13 01:58:24;;;;;;;13.48;2.85;;;6.00;86.20;;;;;;5051441;28;20393;-79
2021/03/13 02:00:50;;;;;;;10.52;2.67;;;5.90;87.30;;;;;;5050352;28;20446;-79
2021/03/13 02:03:15;;;;;;;12.33;2.90;;;5.90;87.90;;;;;;5051534;28;20381;-79
2021/03/13 02:05:47;;;;;;;9.97;2.87;;;5.80;88.50;;;;;;5051928;28;20720;-79
2021/03/13 02:08:54;;;;;;;10.30;2.83;;;5.70;89.20;;;;;;5049780;28;20743;-78
2021/03/13 02:11:40;;;;;;;11.23;2.80;;;5.60;90.10;;;;;;5051805;28;20392;-78
2021/03/13 02:17:30;;;;;;;7.43;3.00;;;5.60;90.90;;;;;;5050883;28;20428;-77
2021/03/13 02:20:52;;;;;;;10.10;3.25;;;5.50;92.00;;;;;;5051705;28;20393;-77
2021/03/13 02:23:20;;;;;;;11.73;3.83;;;5.50;92.00;;;;;;5028603;28;20820;-78
2021/03/13 02:26:05;;;;;;;9.45;3.55;;;5.50;91.80;;;;;;5011957;28;20387;-77
2021/03/13 02:29:14;;;;;;;10.35;3.90;;;5.50;91.70;;;;;;5042004;28;20396;-77
2021/03/13 02:31:44;;;;;;;12.68;3.40;;;5.40;92.20;;;;;;5051242;28;20396;-77
2021/03/13 02:34:12;;;;;;;6.53;3.05;;;5.40;92.00;;;;;;5051553;28;20401;-77
2021/03/13 02:36:39;;;;;;;10.75;3.33;;;5.40;91.80;;;;;;5049198;28;20922;-77
2021/03/13 02:39:08;;;;;;;6.85;3.17;;;5.40;92.40;;;;;;5050955;28;20472;-79
2021/03/13 02:41:44;;;;;;;10.50;3.53;;;5.40;91.80;;;;;;5051150;28;20980;-77
2021/03/13 02:44:12;;;;;;;12.13;3.50;;;5.40;92.20;;;;;;5050736;28;20456;-77
2021/03/13 02:46:42;;;;;;;8.23;3.17;;;5.40;92.40;;;;;;5050005;28;20403;-79
2021/03/13 02:49:10;;;;;;;9.43;3.40;;;5.30;92.80;;;;;;5049323;28;20389;-79
2021/03/13 02:51:36;;;;;;;9.13;3.70;;;5.40;92.10;;;;;;5049391;28;20386;-77
2021/03/13 02:54:02;;;;;;;7.90;3.65;;;5.30;92.40;;;;;;5050454;28;20417;-77
2021/03/13 02:56:29;;;;;;;6.05;2.80;;;5.30;92.50;;;;;;5050828;28;20651;-78
2021/03/13 02:58:56;;;;;;;5.97;2.60;;;5.30;92.50;;;;;;5049091;28;20393;-78
2021/03/13 03:01:26;;;;;;;7.38;3.25;;;5.40;91.70;;;;;;5049563;28;20774;-77
2021/03/13 03:03:53;;;;;;;4.82;2.47;;;5.40;91.90;;;;;;5050721;28;20370;-77
2021/03/13 03:06:20;;;;;;;9.95;3.55;;;5.40;91.80;;;;;;5050496;28;20739;-78
2021/03/13 03:08:47;;;;;;;5.57;2.95;;;5.40;92.50;;;;;;5050128;28;20381;-77
2021/03/13 03:11:18;;;;;;;7.03;2.58;;;5.30;92.50;;;;;;5050218;28;20365;-77
2021/03/13 03:13:44;;;;;;;6.55;2.78;;;5.30;92.30;;;;;;5050698;28;20396;-78
2021/03/13 03:16:10;;;;;;;7.53;2.70;;;5.30;92.50;;;;;;5050241;28;20843;-78
2021/03/13 03:18:36;;;;;;;6.40;2.60;;;5.30;92.60;;;;;;5050151;28;20382;-78
2021/03/13 03:21:03;;;;;;;6.35;2.45;;;5.30;92.70;;;;;;5050177;28;20393;-77
2021/03/13 03:23:30;;;;;;;7.60;2.55;;;5.30;92.60;;;;;;5049261;28;20390;-77
2021/03/13 03:25:56;;;;;;;7.85;3.20;;;5.30;92.30;;;;;;5049810;28;20866;-78
2021/03/13 03:28:22;;;;;;;5.00;2.92;;;5.30;92.70;;;;;;5050118;28;20374;-78
2021/03/13 03:30:49;;;;;;;5.00;2.80;;;5.30;93.10;;;;;;5049959;28;20826;-77
2021/03/13 03:33:15;;;;;;;4.03;2.63;;;5.30;93.50;;;;;;5050038;28;20373;-78
2021/03/13 03:35:42;;;;;;;7.90;3.00;;;5.40;92.50;;;;;;5049393;28;20421;-77
2021/03/13 03:38:08;;;;;;;4.50;2.75;;;5.40;92.50;;;;;;5047781;28;20427;-78
2021/03/13 03:40:35;;;;;;;5.80;2.80;;;5.40;92.90;;;;;;5050055;28;20746;-77
2021/03/13 03:43:14;;;;;;;7.05;3.08;;;5.30;93.30;;;;;;5049989;28;20393;-77
2021/03/13 03:45:42;;;;;;;8.50;2.92;;;5.30;92.90;;;;;;5050484;28;20402;-77
2021/03/13 03:48:13;;;;;;;5.53;2.90;;;5.30;92.70;;;;;;5048065;28;20443;-78
2021/03/13 03:50:40;;;;;;;5.03;2.38;;;5.30;92.90;;;;;;5048916;28;20773;-77
2021/03/13 03:53:22;;;;;;;4.40;2.42;;;5.40;92.00;;;;;;5049865;28;20389;-76
2021/03/13 03:55:50;;;;;;;4.93;2.70;;;5.40;92.50;;;;;;5048641;28;20409;-77
2021/03/13 03:58:25;;;;;;;7.80;2.50;;;5.30;93.10;;;;;;5049188;28;20463;-77
2021/03/13 04:00:52;;;;;;;3.40;2.30;;;5.40;92.70;;;;;;5053980;28;20377;-77
2021/03/13 04:03:20;;;;;;;3.00;1.95;;;5.40;92.70;;;;;;5051387;28;20867;-78
2021/03/13 04:05:47;;;;;;;4.82;2.00;;;5.40;92.70;;;;;;5053591;28;20920;-77
2021/03/13 04:08:15;;;;;;;4.72;2.17;;;5.40;92.60;;;;;;5054028;28;20468;-78
2021/03/13 04:10:44;;;;;;;4.78;2.33;;;5.40;92.70;;;;;;5053519;28;20768;-77
2021/03/13 04:13:12;;;;;;;3.85;2.10;;;5.40;92.50;;;;;;5052829;28;20431;-78
2021/03/13 04:15:40;;;;;;;4.28;1.98;;;5.40;92.80;;;;;;5053720;28;20385;-78
2021/03/13 04:18:06;;;;;;;5.22;1.85;;;5.40;92.40;;;;;;5053085;28;20424;-78
2021/03/13 04:20:32;;;;;;;3.85;1.90;;;5.40;92.60;;;;;;5053890;28;20385;-77
2021/03/13 04:22:58;;;;;;;2.90;1.50;;;5.30;92.90;;;;;;5052262;28;20870;-77
2021/03/13 04:25:25;;;;;;;1.75;1.50;;;5.40;92.40;;;;;;5052509;28;20885;-77
2021/03/13 04:27:50;;;;;;;2.90;1.25;;;5.40;92.50;;;;;;5052973;28;20385;-78
2021/03/13 04:30:18;;;;;;;2.67;1.20;;;5.40;92.20;;;;;;5053735;28;20377;-76
2021/03/13 04:32:47;;;;;;;4.30;1.55;;;5.40;93.00;;;;;;5051841;28;20428;-78
2021/03/13 04:35:14;;;;;;;2.42;1.13;;;5.40;92.70;;;;;;5052443;28;20789;-78
2021/03/13 04:37:40;;;;;;;3.47;1.13;;;5.40;92.30;;;;;;5052878;28;20747;-77
2021/03/13 04:40:08;;;;;;;1.30;1.10;;;5.50;91.80;;;;;;5052258;28;20476;-77
2021/03/13 04:42:33;;;;;;;1.60;1.10;;;5.50;92.30;;;;;;5051702;28;20409;-77
2021/03/13 04:44:59;;;;;;;3.65;1.10;;;5.50;92.40;;;;;;5053306;28;20885;-77
2021/03/13 04:47:25;;;;;;;2.30;1.13;;;5.60;92.20;;;;;;5052973;28;20410;-77
2021/03/13 04:49:50;;;;;;;2.57;0.90;;;5.50;92.60;;;;;;5053476;28;20945;-78
2021/03/13 04:52:16;;;;;;;2.67;0.90;;;5.60;92.30;;;;;;5053546;28;20381;-76
2021/03/13 04:54:41;;;;;;;2.27;0.80;;;5.60;92.40;;;;;;5052874;28;20417;-77
2021/03/13 04:57:07;;;;;;;1.90;1.07;;;5.60;92.10;;;;;;5052465;28;20870;-77
2021/03/13 04:59:34;;;;;;;3.97;0.93;;;5.50;92.80;;;;;;5052837;28;20735;-77
2021/03/13 05:02:02;;;;;;;2.88;0.93;;;5.60;92.70;;;;;;5053129;28;20430;-78
2021/03/13 05:04:27;;;;;;;1.83;0.80;;;5.60;92.80;;;;;;5053039;28;20390;-77
2021/03/13 05:06:53;;;;;;;3.90;1.00;;;5.60;92.60;;;;;;5052613;28;20392;-77
2021/03/13 05:09:18;;;;;;;6.50;1.00;;;5.60;93.00;;;;;;5050835;28;20393;-77
2021/03/13 05:11:44;;;;;;;1.43;1.00;;;5.60;93.10;;;;;;5051512;28;20396;-78
2021/03/13 05:14:09;;;;;;;0.60;0.60;;;5.50;93.20;;;;;;5052430;28;20454;-77
2021/03/13 05:16:35;;;;;;;1.30;1.00;;;5.70;92.50;;;;;;5051724;28;20571;-78
2021/03/13 05:19:01;;;;;;;8.02;3.45;;;5.60;92.70;;;;;;5052673;28;20456;-77
2021/03/13 05:21:26;;;;;;;1.25;1.08;;;5.60;93.00;;;;;;5052238;28;20378;-77
2021/03/13 05:23:52;;;;;;;2.25;0.90;;;5.60;92.80;;;;;;5052768;28;20470;-78
2021/03/13 05:26:18;;;;;;;1.48;0.98;;;5.60;92.40;;;;;;5052005;28;20373;-77
2021/03/13 05:28:43;;;;;;;1.60;1.02;;;5.80;92.30;;;;;;5052090;28;20447;-77
2021/03/13 05:31:09;;;;;;;1.27;1.08;;;5.70;92.60;;;;;;5052269;28;20716;-78
2021/03/13 05:33:34;;;;;;;2.10;1.00;;;5.70;93.00;;;;;;5052393;28;20867;-79
2021/03/13 05:36:00;;;;;;;6.72;1.08;;;5.70;93.10;;;;;;5052406;28;20393;-78
2021/03/13 05:38:25;;;;;;;2.70;0.90;;;5.70;92.70;;;;;;5051953;28;20762;-77
2021/03/13 05:40:51;;;;;;;1.20;0.80;;;5.70;93.00;;;;;;5052232;28;20708;-78
2021/03/13 05:43:18;;;;;;;1.40;0.87;;;5.70;92.80;;;;;;5050961;28;20882;-77
2021/03/13 05:45:47;;;;;;;1.55;0.88;;;5.80;92.60;;;;;;5052009;28;20388;-79
2021/03/13 05:48:14;;;;;;;4.78;0.90;;;5.70;92.80;;;;;;5049790;28;20467;-77
2021/03/13 05:50:40;;;;;;;3.00;1.20;;;5.80;93.00;;;;;;5050942;28;20416;-77
2021/03/13 05:53:10;;;;;;;2.10;0.90;;;5.80;93.10;;;;;;5050503;28;20495;-78
2021/03/13 05:55:36;;;;;;;3.65;1.10;;;5.90;92.60;;;;;;5050475;28;20392;-77
2021/03/13 05:58:02;;;;;;;1.63;0.70;;;5.90;92.50;;;;;;5051293;28;20496;-77
2021/03/13 06:00:27;;;;;;;1.70;0.65;;;5.90;92.30;;;;;;5050597;28;20466;-77
2021/03/13 06:02:55;;;;;;;6.47;0.75;;;6.10;91.70;;;;;;5050241;28;20382;-77
2021/03/13 06:05:20;;;;;;;1.45;0.80;;;6.00;91.90;;;;;;5052102;28;20381;-77
2021/03/13 06:07:47;;;;;;;3.15;0.75;;;5.90;92.90;;;;;;5049893;28;20397;-78
2021/03/13 06:10:14;;;;;;;2.08;0.70;;;6.00;92.50;;;;;;5051355;28;20386;-76
2021/03/13 06:12:40;;;;;;;1.90;0.80;;;6.00;92.50;;;;;;5051485;28;20409;-76
2021/03/13 06:15:06;;;;;;;0.82;0.70;;;6.10;92.10;;;;;;5050065;28;20421;-77
2021/03/13 06:17:55;;;;;;;7.20;1.05;;;6.00;92.70;;;;;;5049706;28;20409;-78
2021/03/13 06:20:24;;;;;;;2.55;0.80;;;6.10;92.70;;;;;;5050966;28;20440;-76
2021/03/13 06:22:49;;;;;;;1.60;0.77;;;6.00;92.80;;;;;;5050938;28;20381;-78
2021/03/13 06:25:27;;;;;;;2.50;0.77;;;6.10;92.40;;;;;;5051586;28;20459;-79
2021/03/13 06:28:20;;;;;;;2.53;0.90;;;6.10;92.60;;;;;;5050893;28;20879;-79
2021/03/13 06:30:51;;;;;;;1.85;0.70;;;6.10;92.70;;;;;;5051129;28;20384;-78
2021/03/13 06:33:31;;;;;;;2.65;0.90;;;6.20;92.30;;;;;;5051195;28;20522;-78
2021/03/13 06:36:01;;;;;;;1.45;0.82;;;6.20;92.40;;;;;;5051666;28;20388;-78
2021/03/13 06:38:29;;;;;;;1.63;0.80;;;6.10;93.00;;;;;;5050180;28;20503;-78
2021/03/13 06:40:57;;;;;;;3.08;0.90;;;6.20;92.30;;;;;;5051315;28;20412;-79
2021/03/13 06:43:29;;;;;;;2.75;0.95;;;6.20;92.70;;;;;;5049573;28;20874;-79
2021/03/13 06:46:02;;;;;;;2.87;0.93;;;6.20;93.20;;;;;;5049881;28;20390;-78
2021/03/13 06:48:33;;;;;;;2.38;0.90;;;6.20;92.70;;;;;;5049031;28;20405;-78
2021/03/13 06:51:16;;;;;;;4.90;0.80;;;6.30;92.00;;;;;;5051079;28;20382;-79
2021/03/13 06:53:42;;;;;;;3.20;1.10;;;6.30;93.00;;;;;;5049622;28;20401;-78
2021/03/13 06:56:12;;;;;;;1.55;0.85;;;6.30;93.10;;;;;;5049843;28;20862;-79
2021/03/13 06:58:39;;;;;;;3.13;1.10;;;6.30;92.40;;;;;;5047493;28;20924;-80
2021/03/13 07:01:06;;;;;;;3.42;0.95;;;6.50;91.20;;;;;;5048969;28;20443;-78
2021/03/13 07:03:33;;;;;;;2.72;0.90;;;6.40;91.80;;;;;;5048525;28;20389;-78
2021/03/13 07:05:59;;;;;;;3.05;0.77;;;6.40;92.00;;;;;;5048692;28;20384;-79
2021/03/13 07:08:29;;;;;;;2.17;0.93;;;6.50;92.20;;;;;;5048639;28;20393;-80
2021/03/13 07:11:06;;;;;;;2.15;0.73;;;6.50;91.80;;;;;;5049450;28;20394;-79
2021/03/13 07:13:36;;;;;;;3.60;0.80;;;6.50;92.00;;;;;;5050526;28;20727;-78
2021/03/13 07:16:32;;;;;;;3.38;0.80;;;6.70;90.80;;;;;;5050554;28;20388;-79
2021/03/13 07:19:06;;;;;;;5.03;1.17;;;6.70;91.00;;;;;;5048916;28;20404;-77
2021/03/13 07:21:32;;;;;;;2.10;0.60;;;6.60;91.00;;;;;;5050314;28;20385;-78
2021/03/13 07:23:59;;;;;;;3.83;0.60;;;6.70;91.30;;;;;;5050305;28;20386;-79
2021/03/13 07:26:28;;;;;;;3.60;0.60;;;6.70;91.00;;;;;;5049761;28;20386;-80
2021/03/13 07:28:57;;;;;;;1.58;0.70;;;6.70;90.60;;;;;;5047659;28;20471;-79
2021/03/13 07:31:25;;;;;;;1.40;0.70;;;6.80;90.00;;;;;;5048670;28;20621;-79
2021/03/13 07:33:50;;;;;;;3.00;0.70;;;6.80;90.40;;;;;;5050329;28;20397;-79
2021/03/13 07:36:20;;;;;;;3.58;0.57;;;6.90;90.30;;;;;;5049514;28;20378;-79
2021/03/13 07:38:48;;;;;;;1.52;0.60;;;6.80;91.20;;;;;;5049929;28;20408;-78
2021/03/13 07:41:18;;;;;;;1.00;0.50;;;6.60;92.70;;;;;;5050112;28;20393;-79
2021/03/13 07:43:45;;;;;;;2.80;0.70;;;6.70;92.20;;;;;;5049129;28;20576;-78
2021/03/13 07:46:12;;;;;;;3.20;0.63;;;6.60;91.80;;;;;;5048316;28;20400;-79
2021/03/13 07:48:41;;;;;;;1.27;0.95;;;6.60;91.40;;;;;;5049805;28;20524;-77
2021/03/13 07:51:08;;;;;;;1.38;0.50;;;6.50;91.10;;;;;;5048269;28;20389;-79
2021/03/13 07:53:38;;;;;;;1.88;0.50;;;6.40;85.50;;;;;;5049907;28;20901;-79
2021/03/13 07:56:08;;;;;;;0.50;0.50;;;6.10;86.80;;;;;;5049990;28;20386;-78
2021/03/13 07:58:37;;;;;;;1.67;0.55;;;6.10;87.90;;;;;;5047970;28;20436;-77
2021/03/13 08:01:03;;;;;;;3.28;0.50;;;6.20;88.20;;;;;;5050153;28;20381;-78
2021/03/13 08:03:29;;;;;;;0.97;0.60;;;6.20;86.90;;;;;;5049481;28;20385;-79
2021/03/13 08:05:59;;;;;;;1.17;0.45;;;6.20;87.80;;;;;;5050190;28;20369;-78
2021/03/13 08:08:50;;;;;;;0.75;0.50;;;6.10;87.10;;;;;;5049311;28;20715;-78
2021/03/13 08:11:20;;;;;;;0.95;0.50;;;6.00;86.50;;;;;;5048825;28;20790;-78
2021/03/13 08:13:54;;;;;;;2.05;0.47;;;6.00;86.50;;;;;;5048470;28;20881;-77
2021/03/13 08:16:37;;;;;;;0.38;0.35;;;5.90;87.20;;;;;;5049784;28;20382;-79
2021/03/13 08:19:24;;;;;;;0.82;0.52;;;6.00;85.10;;;;;;5048408;28;20389;-78
2021/03/13 08:21:49;;;;;;;1.85;0.50;;;6.00;86.00;;;;;;5048400;28;20397;-77
2021/03/13 08:24:15;;;;;;;1.08;0.50;;;6.00;84.70;;;;;;5049924;28;20385;-78
2021/03/13 08:26:40;;;;;;;1.35;0.50;;;6.10;84.30;;;;;;5048902;28;20394;-77
2021/03/13 08:29:07;;;;;;;5.23;0.80;;;6.00;85.40;;;;;;5049739;28;20443;-78
2021/03/13 08:31:44;;;;;;;2.25;0.60;;;6.00;85.70;;;;;;5048984;28;20404;-80
2021/03/13 08:34:18;;;;;;;0.40;0.40;;;6.10;82.40;;;;;;5045799;28;20398;-78
2021/03/13 08:36:46;;;;;;;3.55;1.10;;;6.20;81.80;;;;;;5047664;28;20503;-80
2021/03/13 08:39:14;;;;;;;1.43;0.50;;;6.20;82.20;;;;;;5049340;28;20439;-79
2021/03/13 08:41:42;;;;;;;2.47;0.60;;;6.30;80.70;;;;;;5050043;28;20382;-79
2021/03/13 08:44:28;;;;;;;1.70;0.50;;;6.30;80.80;;;;;;5050323;28;20381;-77
2021/03/13 08:47:08;;;;;;;2.83;0.60;;;6.30;80.70;;;;;;5053228;28;20393;-78
2021/03/13 08:49:43;;;;;;;2.45;0.77;;;6.30;81.40;;;;;;5053081;28;20440;-79
2021/03/13 08:52:09;;;;;;;3.20;0.70;;;6.40;80.40;;;;;;5051905;28;20397;-78
2021/03/13 08:54:37;;;;;;;5.78;0.77;;;6.30;81.90;;;;;;5053138;28;20393;-79
2021/03/13 08:57:03;;;;;;;2.22;0.70;;;6.40;81.40;;;;;;5052479;28;20410;-78
2021/03/13 08:59:29;;;;;;;2.03;0.60;;;6.40;81.00;;;;;;5053557;28;20408;-78
2021/03/13 09:02:08;;;;;;;1.90;0.70;;;6.40;80.30;;;;;;5052581;28;20897;-81
2021/03/13 09:04:35;;;;;;;2.50;0.73;;;6.40;79.60;;;;;;5053218;28;20400;-79
2021/03/13 09:07:03;;;;;;;3.93;0.80;;;6.50;80.20;;;;;;5052206;28;20843;-79
2021/03/13 09:09:31;;;;;;;6.33;0.87;;;6.50;79.80;;;;;;5052901;28;20389;-78
2021/03/13 09:11:59;;;;;;;7.57;1.07;;;6.40;80.10;;;;;;5052933;28;20424;-78
2021/03/13 09:14:26;;;;;;;4.80;0.70;;;6.50;80.40;;;;;;5052564;28;20443;-79
2021/03/13 09:16:52;;;;;;;3.20;0.88;;;6.50;80.40;;;;;;5051139;28;20543;-78
2021/03/13 09:19:17;;;;;;;4.50;0.70;;;6.50;80.10;;;;;;5052628;28;20389;-79
2021/03/13 09:21:46;;;;;;;2.87;0.87;;;6.50;81.40;;;;;;5052534;28;20385;-79
2021/03/13 09:24:17;;;;;;;6.65;1.20;;;6.60;81.60;;;;;;5052252;28;20390;-78
2021/03/13 09:26:46;;;;;;;5.00;0.90;;;6.60;82.00;;;;;;5052082;28;20405;-78
2021/03/13 09:29:12;;;;;;;2.07;0.80;;;6.60;81.20;;;;;;5050640;28;20758;-78
2021/03/13 09:31:37;;;;;;;4.00;1.13;;;6.60;81.10;;;;;;5052186;28;20400;-78
2021/03/13 09:34:18;;;;;;;1.60;0.90;;;6.60;81.10;;;;;;5051773;28;20389;-79
2021/03/13 09:36:45;;;;;;;9.55;1.70;;;6.60;80.20;;;;;;5050462;28;20921;-79
2021/03/13 09:39:11;;;;;;;5.30;1.17;;;6.70;81.10;;;;;;5050602;28;20397;-78
2021/03/13 09:41:37;;;;;;;3.72;0.70;;;6.80;81.40;;;;;;5050975;28;20400;-78
2021/03/13 09:44:02;;;;;;;9.10;1.10;;;6.80;81.50;;;;;;5050582;28;20385;-79
2021/03/13 09:46:30;;;;;;;2.17;0.88;;;6.80;80.70;;;;;;5050660;28;20388;-79
2021/03/13 09:48:56;;;;;;;5.05;0.95;;;6.80;80.30;;;;;;5050533;28;20393;-77
2021/03/13 09:51:21;;;;;;;6.95;1.10;;;6.90;80.30;;;;;;5051755;28;20435;-79
2021/03/13 09:53:47;;;;;;;4.28;1.73;;;7.00;80.50;;;;;;5050952;28;20473;-80
2021/03/13 09:56:13;;;;;;;7.07;1.30;;;7.00;79.70;;;;;;5052153;28;20386;-80
2021/03/13 09:58:38;;;;;;;9.20;1.55;;;6.90;79.50;;;;;;5051570;28;20453;-81
2021/03/13 10:01:04;;;;;;;12.75;1.58;;;6.90;80.00;;;;;;5050119;28;21005;-80
2021/03/13 10:03:30;;;;;;;7.35;1.23;;;6.40;84.40;;;;;;5051035;28;20881;-80
2021/03/13 10:05:56;;;;;;;8.10;1.85;;;6.20;86.60;;;;;;5048643;28;20393;-78
2021/03/13 10:08:32;;;;;;;8.32;1.30;;;6.10;86.90;;;;;;5050428;28;20477;-80
2021/03/13 10:11:04;;;;;;;6.32;1.13;;;6.30;87.80;;;;;;5049169;28;20389;-80
2021/03/13 10:13:30;;;;;;;6.80;1.35;;;6.40;86.70;;;;;;5049401;28;20408;-80
2021/03/13 10:15:56;;;;;;;8.88;1.35;;;6.40;85.20;;;;;;5050245;28;20373;-78
2021/03/13 10:18:26;;;;;;;8.70;1.25;;;6.60;84.30;;;;;;5048540;28;20417;-80
2021/03/13 10:20:56;;;;;;;4.85;1.00;;;6.70;83.50;;;;;;5050754;28;20378;-80
2021/03/13 10:23:24;;;;;;;7.85;1.50;;;6.80;83.20;;;;;;5050797;28;20390;-80
2021/03/13 10:26:11;;;;;;;6.45;1.40;;;6.80;80.30;;;;;;5050609;28;20393;-79
2021/03/13 10:28:39;;;;;;;8.73;2.30;;;6.90;79.80;;;;;;5049959;28;20389;-80
2021/03/13 10:31:26;;;;;;;11.88;1.40;;;7.00;79.40;;;;;;5050610;28;20381;-81
2021/03/13 10:33:52;;;;;;;5.18;1.20;;;7.10;78.00;;;;;;5050095;28;20451;-80
2021/03/13 10:36:20;;;;;;;6.53;1.90;;;7.10;78.70;;;;;;5050107;28;20735;-80
2021/03/13 10:38:47;;;;;;;11.23;1.52;;;7.20;76.40;;;;;;5048669;28;20396;-80
2021/03/13 10:41:15;;;;;;;9.48;1.40;;;7.20;76.40;;;;;;5050009;28;20563;-81
2021/03/13 10:43:44;;;;;;;11.60;1.55;;;7.30;78.50;;;;;;5050121;28;20386;-81
2021/03/13 10:46:16;;;;;;;7.70;1.30;;;7.40;75.90;;;;;;5050439;28;20527;-81
2021/03/13 10:48:49;;;;;;;8.82;1.70;;;7.50;76.30;;;;;;5050008;28;20393;-80
2021/03/13 10:51:36;;;;;;;7.90;1.52;;;7.60;78.00;;;;;;5049982;28;20389;-81
2021/03/13 10:54:03;;;;;;;9.93;1.45;;;7.60;76.70;;;;;;5048525;28;20751;-80
2021/03/13 10:56:40;;;;;;;12.90;1.90;;;7.40;76.50;;;;;;5049850;28;20373;-81
2021/03/13 10:59:06;;;;;;;7.85;1.60;;;7.40;77.50;;;;;;5048294;28;20413;-80
2021/03/13 11:01:32;;;;;;;6.97;2.00;;;7.70;75.20;;;;;;5050195;28;20381;-81
2021/03/13 11:03:58;;;;;;;11.27;2.03;;;8.40;73.70;;;;;;5049724;28;20739;-81
2021/03/13 11:06:28;;;;;;;11.33;1.90;;;8.40;74.50;;;;;;5049926;28;20472;-81
2021/03/13 11:08:57;;;;;;;10.32;1.77;;;8.40;69.60;;;;;;5049194;28;20527;-81
2021/03/13 11:11:23;;;;;;;11.38;1.52;;;8.80;69.20;;;;;;5049748;28;20728;-83
2021/03/13 11:13:48;;;;;;;11.35;1.65;;;8.70;71.80;;;;;;5049549;28;20413;-84
2021/03/13 11:16:14;;;;;;;14.80;1.90;;;8.80;67.40;;;;;;5049728;28;20381;-82
2021/03/13 11:18:40;;;;;;;9.00;1.90;;;8.40;70.60;;;;;;5049110;28;20486;-82
2021/03/13 11:21:05;;;;;;;11.23;2.17;;;8.10;69.60;;;;;;5049283;28;20435;-82
2021/03/13 11:23:31;;;;;;;8.40;1.63;;;8.00;70.10;;;;;;5049838;28;20467;-81
2021/03/13 11:25:57;;;;;;;12.50;1.70;;;7.80;71.50;;;;;;5048882;28;20936;-80
2021/03/13 11:28:23;;;;;;;10.32;1.30;;;7.00;79.50;;;;;;5047885;28;20389;-79
2021/03/13 11:30:48;;;;;;;8.77;1.90;;;6.10;85.70;;;;;;5049459;28;20781;-78
2021/03/13 11:33:14;;;;;;;10.88;1.75;;;5.90;87.50;;;;;;5049689;28;20386;-79
2021/03/13 11:35:41;;;;;;;8.30;1.75;;;6.30;88.90;;;;;;5049073;28;20382;-79
2021/03/13 11:38:06;;;;;;;11.63;2.20;;;6.80;88.00;;;;;;5051529;28;20424;-79
2021/03/13 11:40:32;;;;;;;15.65;2.45;;;7.30;85.90;;;;;;5048690;28;20476;-79
2021/03/13 11:43:00;;;;;;;14.02;1.90;;;7.80;87.50;;;;;;5049094;28;20779;-80
2021/03/13 11:45:26;;;;;;;17.10;2.08;;;7.50;85.50;;;;;;5049183;28;20409;-79
2021/03/13 11:47:55;;;;;;;17.77;1.80;;;7.40;83.90;;;;;;5048342;28;20424;-81
2021/03/13 11:50:21;;;;;;;16.27;2.38;;;7.50;81.50;;;;;;5047717;28;20885;-80
2021/03/13 11:52:47;;;;;;;11.30;2.00;;;7.80;81.00;;;;;;5048783;28;20804;-80
2021/03/13 11:55:12;;;;;;;13.63;2.43;;;7.90;80.30;;;;;;5049102;28;20389;-81
2021/03/13 11:57:38;;;;;;;13.93;2.07;;;8.10;77.40;;;;;;5047082;28;20413;-79
2021/03/13 12:00:06;;;;;;;21.35;2.08;;;8.10;74.10;;;;;;5049168;28;20854;-80
2021/03/13 12:02:32;;;;;;;12.90;2.13;;;8.10;73.30;;;;;;5048497;28;20389;-80
2021/03/13 12:04:57;;;;;;;13.53;1.93;;;8.00;74.60;;;;;;5057581;28;20618;-80
2021/03/13 12:07:23;;;;;;;13.63;2.97;;;7.80;75.70;;;;;;5069092;28;20441;-80
2021/03/13 12:09:48;;;;;;;11.10;1.85;;;7.40;76.40;;;;;;5069715;28;20371;-80
2021/03/13 12:12:14;;;;;;;15.20;1.70;;;7.30;77.30;;;;;;5069731;28;20391;-80
2021/03/13 12:14:40;;;;;;;19.30;2.60;;;7.40;77.40;;;;;;5068667;28;20495;-79
2021/03/13 12:17:07;;;;;;;15.50;2.23;;;8.00;79.10;;;;;;5057799;28;20511;-78
2021/03/13 12:19:33;;;;;;;9.27;1.83;;;8.40;75.00;;;;;;5051129;28;20413;-80
2021/03/13 12:22:00;;;;;;;13.48;2.22;;;8.40;77.00;;;;;;5053380;28;20432;-80
2021/03/13 12:24:25;;;;;;;7.10;1.50;;;8.80;75.70;;;;;;5053604;28;20921;-79
2021/03/13 12:26:50;;;;;;;8.00;1.33;;;8.40;73.00;;;;;;5051970;28;20464;-81
2021/03/13 12:29:16;;;;;;;6.90;1.63;;;8.30;70.90;;;;;;5053380;28;20381;-78
2021/03/13 12:31:42;;;;;;;6.70;1.27;;;8.20;71.20;;;;;;5053728;28;20373;-80
2021/03/13 12:34:11;;;;;;;13.65;2.00;;;8.50;71.80;;;;;;5053098;28;20382;-79
2021/03/13 12:36:37;;;;;;;13.50;3.10;;;8.50;70.30;;;;;;5052449;28;20401;-79
2021/03/13 12:39:03;;;;;;;11.10;2.25;;;8.50;70.90;;;;;;5051344;28;20454;-81
2021/03/13 12:41:29;;;;;;;10.63;1.80;;;8.20;70.20;;;;;;5051726;28;20524;-77
2021/03/13 12:43:54;;;;;;;14.53;2.40;;;8.20;68.90;;;;;;5052388;28;20988;-76
2021/03/13 12:46:20;;;;;;;10.30;2.30;;;8.10;71.10;;;;;;5053435;28;20474;-81
2021/03/13 12:48:48;;;;;;;10.23;2.10;;;7.90;71.50;;;;;;5052403;28;20838;-78
2021/03/13 12:51:14;;;;;;;15.23;2.03;;;7.80;73.70;;;;;;5049141;28;20401;-80
2021/03/13 12:53:41;;;;;;;5.82;1.10;;;7.10;80.60;;;;;;5051334;28;20388;-78
2021/03/13 12:56:07;;;;;;;8.90;1.08;;;6.10;82.80;;;;;;5051070;28;20405;-78
2021/03/13 12:58:32;;;;;;;9.80;0.90;;;5.60;86.60;;;;;;5050404;28;20957;-78
2021/03/13 13:00:58;;;;;;;8.90;1.10;;;5.60;90.00;;;;;;5050963;28;20381;-78
2021/03/13 13:03:24;;;;;;;8.30;1.15;;;5.90;88.40;;;;;;5051597;28;20663;-78
2021/03/13 13:05:49;;;;;;;5.40;1.08;;;6.00;88.10;;;;;;5051111;28;20385;-78